createdAt,value
2022-08-10T07:51:13.090Z,21.30
2022-08-10T07:54:22.473Z,21.40
2022-08-10T07:57:32.470Z,21.50
2022-08-10T08:06:12.087Z,21.70
2022-08-10T08:08:46.269Z,21.80
2022-08-10T08:11:25.615Z,21.90
2022-08-10T08:13:57.288Z,22.00
2022-08-10T08:16:34.067Z,22.10
2022-08-10T08:24:09.975Z,22.00
2022-08-10T08:24:44.720Z,22.20
2022-08-10T08:27:14.089Z,22.50
2022-08-10T08:29:43.238Z,22.70
2022-08-10T08:32:10.780Z,22.70
2022-08-10T08:34:42.254Z,22.80
2022-08-10T08:38:31.569Z,22.80
2022-08-10T08:40:21.043Z,22.80
2022-08-10T08:50:38.201Z,23.50
2022-08-10T08:54:02.142Z,23.60
2022-08-10T08:57:10.061Z,23.70
2022-08-10T09:00:05.466Z,23.90
2022-08-10T09:05:59.806Z,23.80
2022-08-10T09:09:08.724Z,23.80
2022-08-10T09:12:16.403Z,23.90
2022-08-10T09:14:51.399Z,23.90
2022-08-10T09:17:37.494Z,24.00
2022-08-10T09:20:42.477Z,24.00
2022-08-10T09:24:01.854Z,24.10
2022-08-10T09:26:45.429Z,24.20
2022-08-10T09:31:55.934Z,24.50
2022-08-10T09:38:37.440Z,25.10
2022-08-10T09:41:25.321Z,25.20
2022-08-10T09:44:32.921Z,25.20
2022-08-10T09:47:23.406Z,25.30
2022-08-10T09:51:34.460Z,25.50
2022-08-10T09:54:18.247Z,25.60
2022-08-10T10:00:14.441Z,25.40
2022-08-10T10:05:59.605Z,25.50
2022-08-10T10:08:38.354Z,25.60
2022-08-10T10:11:34.650Z,25.70
2022-08-10T10:21:54.534Z,26.10
2022-08-10T10:24:35.600Z,26.40
2022-08-10T10:27:39.008Z,26.60
2022-08-10T10:37:25.942Z,26.80
2022-08-10T10:40:15.557Z,26.90
2022-08-10T10:43:08.705Z,27.10
2022-08-10T10:49:22.677Z,27.40
2022-08-10T10:56:13.858Z,28.00
2022-08-10T10:59:33.301Z,28.30
2022-08-10T11:02:35.781Z,28.30
2022-08-10T11:05:17.579Z,28.00
2022-08-10T11:08:28.865Z,27.90
2022-08-10T11:11:00.519Z,28.20
2022-08-10T11:14:28.535Z,28.40
2022-08-10T11:17:14.346Z,28.20
2022-08-10T11:23:10.374Z,28.30
2022-08-10T11:25:41.265Z,28.40
2022-08-10T11:31:19.440Z,28.00
2022-08-10T11:40:15.686Z,27.80
2022-08-10T11:42:54.923Z,28.00
2022-08-10T11:45:42.408Z,28.10
2022-08-10T11:48:53.953Z,28.40
2022-08-10T11:52:02.456Z,28.60
2022-08-10T11:54:48.353Z,28.40
2022-08-10T11:57:18.622Z,28.20
2022-08-10T11:59:58.185Z,28.30
2022-08-10T12:05:53.871Z,28.10
2022-08-10T12:10:04.663Z,28.00
2022-08-10T12:11:36.027Z,28.20
2022-08-10T12:14:34.290Z,28.70
2022-08-10T12:17:23.983Z,29.00
2022-08-10T12:20:09.561Z,28.80
2022-08-10T12:23:00.476Z,28.70
2022-08-10T12:25:58.742Z,28.50
2022-08-10T12:28:57.830Z,28.30
2022-08-10T12:31:51.387Z,28.40
2022-08-10T12:38:05.497Z,28.80
2022-08-10T12:44:11.862Z,28.60
2022-08-10T12:46:58.262Z,28.90
2022-08-10T12:50:23.884Z,29.20
2022-08-10T12:56:07.365Z,29.30
2022-08-10T13:08:03.958Z,29.10
2022-08-10T13:10:22.869Z,29.10
2022-08-10T13:13:35.901Z,29.20
2022-08-10T13:16:09.826Z,29.40
2022-08-10T13:19:00.016Z,29.60
2022-08-10T13:21:44.549Z,29.90
2022-08-10T13:24:15.932Z,29.80
2022-08-10T13:28:02.768Z,29.80
2022-08-10T13:30:13.098Z,29.60
2022-08-10T13:32:51.367Z,29.60
2022-08-10T13:35:20.110Z,29.50
2022-08-10T13:37:59.669Z,29.60
2022-08-10T13:40:41.585Z,29.60
2022-08-10T13:43:10.140Z,29.60
2022-08-10T13:45:50.242Z,29.60
2022-08-10T13:48:22.566Z,29.80
2022-08-10T13:50:57.615Z,29.80
2022-08-10T13:53:30.914Z,30.00
2022-08-10T13:56:14.362Z,29.90
2022-08-10T13:58:49.936Z,30.10
2022-08-10T14:01:32.077Z,30.10
2022-08-10T14:04:00.898Z,29.70
2022-08-10T14:06:34.753Z,29.70
2022-08-10T14:09:05.905Z,29.60
2022-08-10T14:11:37.967Z,29.70
2022-08-10T14:14:08.059Z,29.80
2022-08-10T14:16:49.626Z,30.00
2022-08-10T14:19:38.039Z,30.10
2022-08-10T14:22:34.379Z,29.90
2022-08-10T14:25:23.990Z,29.50
2022-08-10T14:28:01.797Z,29.00
2022-08-10T14:30:32.349Z,29.00
2022-08-10T14:33:07.248Z,29.10
2022-08-10T14:36:19.685Z,29.10
2022-08-10T14:38:35.755Z,29.10
2022-08-10T14:42:01.427Z,29.30
2022-08-10T14:45:01.207Z,29.40
2022-08-10T14:47:52.720Z,29.20
2022-08-10T14:50:32.580Z,28.80
2022-08-10T14:56:20.015Z,28.70
2022-08-10T15:02:40.844Z,28.70
2022-08-10T15:05:09.437Z,28.80
2022-08-10T15:07:46.409Z,28.60
2022-08-10T15:10:28.379Z,28.60
2022-08-10T15:12:58.615Z,28.60
2022-08-10T15:15:49.929Z,28.60
2022-08-10T15:18:58.115Z,28.50
2022-08-10T15:21:42.485Z,28.40
2022-08-10T15:24:27.049Z,28.50
2022-08-10T15:27:16.452Z,28.50
2022-08-10T15:29:57.454Z,28.60
2022-08-10T15:32:35.906Z,28.50
2022-08-10T15:35:13.875Z,28.60
2022-08-10T15:37:54.281Z,28.50
2022-08-10T15:40:42.564Z,28.50
2022-08-10T15:43:24.861Z,28.40
2022-08-10T15:46:16.054Z,28.20
2022-08-10T15:49:27.760Z,28.10
2022-08-10T15:57:46.422Z,28.20
2022-08-10T16:04:42.414Z,28.30
2022-08-10T16:10:58.148Z,28.00
2022-08-10T16:13:50.702Z,28.00
2022-08-10T16:16:55.177Z,28.00
2022-08-10T16:22:36.146Z,27.70
2022-08-10T16:25:00.290Z,27.70
2022-08-10T16:27:28.295Z,27.70
2022-08-10T16:29:58.646Z,27.70
2022-08-10T16:32:39.515Z,27.70
2022-08-10T16:35:17.208Z,27.70
2022-08-10T16:37:59.651Z,27.70
2022-08-10T16:40:31.083Z,27.70
2022-08-10T16:43:07.664Z,27.70
2022-08-10T16:54:09.202Z,27.50
2022-08-10T16:56:49.313Z,27.40
2022-08-10T17:00:05.970Z,27.40
2022-08-10T17:02:34.568Z,27.40
2022-08-10T17:05:07.327Z,27.30
2022-08-10T17:08:02.087Z,27.30
2022-08-10T17:10:34.049Z,27.30
2022-08-10T17:13:22.451Z,27.40
2022-08-10T17:16:12.979Z,27.30
2022-08-10T17:18:48.411Z,27.20
2022-08-10T17:24:46.225Z,27.00
2022-08-10T17:28:13.802Z,27.10
2022-08-10T17:41:56.205Z,26.80
2022-08-10T17:44:38.853Z,26.80
2022-08-10T17:47:27.508Z,26.80
2022-08-10T17:50:11.157Z,26.70
2022-08-10T17:53:01.835Z,26.60
2022-08-10T17:55:46.109Z,26.60
2022-08-10T17:58:32.158Z,26.60
2022-08-10T18:01:38.858Z,26.60
2022-08-10T18:03:56.889Z,26.60
2022-08-10T18:06:35.677Z,26.50
2022-08-10T18:13:16.036Z,26.40
2022-08-10T18:18:50.448Z,26.20
2022-08-10T18:21:28.216Z,26.10
2022-08-10T18:27:02.390Z,26.00
2022-08-10T18:29:38.394Z,25.90
2022-08-10T18:32:25.737Z,25.80
2022-08-10T18:35:01.366Z,25.80
2022-08-10T18:37:29.610Z,25.70
2022-08-10T18:40:04.118Z,25.70
2022-08-10T18:42:49.655Z,25.60
2022-08-10T18:45:24.064Z,25.50
2022-08-10T18:51:27.754Z,25.40
2022-08-10T18:54:06.872Z,25.30
2022-08-10T18:56:57.977Z,25.30
2022-08-10T19:00:14.834Z,25.20
2022-08-10T19:02:58.157Z,25.20
2022-08-10T19:05:52.220Z,25.10
2022-08-10T19:08:49.430Z,25.00
2022-08-10T19:11:37.787Z,25.00
2022-08-10T19:14:42.484Z,24.90
2022-08-10T19:18:04.001Z,24.90
2022-08-10T19:20:46.653Z,24.80
2022-08-10T19:23:29.798Z,24.70
2022-08-10T19:26:39.328Z,24.60
2022-08-10T19:30:12.439Z,24.60
2022-08-10T19:33:04.981Z,24.50
2022-08-10T19:36:03.305Z,24.50
2022-08-10T19:39:08.311Z,24.40
2022-08-10T19:41:41.886Z,24.40
2022-08-10T19:44:42.049Z,24.40
2022-08-10T19:47:34.017Z,24.30
2022-08-10T19:50:19.796Z,24.30
2022-08-10T19:53:06.436Z,24.20
2022-08-10T19:55:52.673Z,24.20
2022-08-10T19:58:26.182Z,24.10
2022-08-10T20:01:19.862Z,24.00
2022-08-10T20:03:55.339Z,23.90
2022-08-10T20:06:33.597Z,23.90
2022-08-10T20:09:21.809Z,23.80
2022-08-10T20:12:18.207Z,23.70
2022-08-10T20:15:07.439Z,23.70
2022-08-10T20:18:00.762Z,23.60
2022-08-10T20:20:37.668Z,23.50
2022-08-10T20:27:30.761Z,23.40
2022-08-10T20:29:57.699Z,23.30
2022-08-10T20:32:32.082Z,23.30
2022-08-10T20:35:10.708Z,23.20
2022-08-10T20:38:04.339Z,23.10
2022-08-10T20:40:43.329Z,23.10
2022-08-10T20:43:47.345Z,23.00
2022-08-10T20:46:33.386Z,23.00
2022-08-10T20:49:18.305Z,22.90
2022-08-10T20:51:58.361Z,22.90
2022-08-10T20:54:32.946Z,22.90
2022-08-10T20:57:56.903Z,22.90
2022-08-10T21:00:44.935Z,22.80
2022-08-10T21:03:34.855Z,22.80
2022-08-10T21:06:41.399Z,22.80
2022-08-10T21:09:46.673Z,22.70
2022-08-10T21:12:32.118Z,22.70
2022-08-10T21:18:54.179Z,22.70
2022-08-10T21:21:59.206Z,22.60
2022-08-10T21:24:45.701Z,22.60
2022-08-10T21:27:33.940Z,22.50
2022-08-10T21:30:17.133Z,22.50
2022-08-10T21:33:21.020Z,22.50
2022-08-10T21:36:12.014Z,22.50
2022-08-10T21:46:01.524Z,22.30
2022-08-10T21:52:03.825Z,22.10
2022-08-10T21:58:43.697Z,22.10
2022-08-10T22:04:19.030Z,22.10
2022-08-10T22:07:06.378Z,22.10
2022-08-10T22:09:56.414Z,22.00
2022-08-10T22:12:49.950Z,21.90
2022-08-10T22:18:04.996Z,21.80
2022-08-10T22:20:35.241Z,21.80
2022-08-10T22:23:23.895Z,21.80
2022-08-10T22:26:12.825Z,21.70
2022-08-10T22:29:01.862Z,21.70
2022-08-10T22:32:15.252Z,21.60
2022-08-10T22:35:07.770Z,21.60
2022-08-10T22:38:07.901Z,21.60
2022-08-10T22:40:35.262Z,21.50
2022-08-10T22:43:10.713Z,21.50
2022-08-10T22:45:55.019Z,21.50
2022-08-10T22:48:41.467Z,21.40
2022-08-10T22:51:22.221Z,21.40
2022-08-10T22:53:53.357Z,21.30
2022-08-10T22:56:37.718Z,21.30
2022-08-10T22:59:25.621Z,21.20
2022-08-10T23:02:08.149Z,21.20
2022-08-10T23:04:50.466Z,21.10
2022-08-10T23:07:35.767Z,21.10
2022-08-10T23:10:11.789Z,21.00
2022-08-10T23:13:06.565Z,21.00
2022-08-10T23:15:57.453Z,20.90
2022-08-10T23:18:43.644Z,20.90
2022-08-10T23:22:03.922Z,20.80
2022-08-10T23:24:54.793Z,20.80
2022-08-10T23:27:44.915Z,20.70
2022-08-10T23:30:17.258Z,20.70
2022-08-10T23:33:04.630Z,20.70
2022-08-10T23:36:08.809Z,20.60
2022-08-10T23:38:53.295Z,20.60
2022-08-10T23:41:39.637Z,20.50
2022-08-10T23:44:22.472Z,20.50
2022-08-10T23:46:50.046Z,20.40
2022-08-10T23:49:19.017Z,20.40
2022-08-10T23:51:54.841Z,20.40
2022-08-10T23:54:24.238Z,20.40
2022-08-10T23:57:06.210Z,20.30
2022-08-10T23:59:34.217Z,20.30
